• Join FlightAware (Why Join?)
  • Login
  • US Flag 
10:40PM EDT


 

Airport Tracker/Info


-or-


 

Live Flight TrackerFlight Track Log ✈ UAL3744 ✈ 26-Apr-2013 ✈ KIAD - KDFW

Flight Track Log - Related Links

Times and Time Zones

All times are in EDT time to prevent confusion due to time zone crossing. See the UAL3744 flight status page for this flight to view local times or setup timezone preferences in your user account.

Time Position Orientation Groundspeed Altitude Reporting Facility
EDT Latitude Longitude Course Direction KTS MPH feet Rate Location/Type
08:31AM 38.9333 -77.5333 287° West 197 227 1,900  Level Potomac TRACON
08:32AM 38.8833 -77.6167 232° Southwest 256 295 4,500 2,460 Climbing Potomac TRACON
08:33AM 38.8500 -77.6667 229° Southwest 256 295 6,600 2,400 Climbing Potomac TRACON
08:34AM 38.8503 -77.7533 270° West 262 302 8,900 2,100 Climbing Washington Center
08:35AM 38.8508 -77.8361 271° West 268 308 10,600 1,740 Climbing Washington Center
08:36AM 38.8056 -78.0127 287° West  Level FlightAware Approximate
08:36AM 38.8506 -77.9561 270° West 288 331 12,400  Level Washington Center
08:37AM 38.8528 -78.0547 272° West 293 337 15,600 2,400 Climbing Washington Center
08:38AM 38.8528 -78.1586 270° West 288 331 17,300 1,200 Climbing Washington Center
08:39AM 38.8525 -78.2600 270° West 288 331 18,000 360 Climbing Washington Center
08:40AM 38.8522 -78.3611 270° West 288 331 18,100 840 Climbing Washington Center
08:41AM 38.8519 -78.4653 270° West 288 331 19,800 900 Climbing Washington Center
08:42AM 38.8514 -78.5772 270° West 300 345 20,000 660 Climbing Washington Center
08:43AM 38.8481 -78.7050 268° West 324 373 21,200 1,320 Climbing Washington Center
08:44AM 38.8469 -78.8303 269° West 348 400 22,700 1,320 Climbing Washington Center
08:45AM 38.8433 -78.9581 268° West 353 406 23,900 1,140 Climbing Washington Center
08:46AM 38.8397 -79.0883 268° West 365 420 25,000 900 Climbing Washington Center
08:47AM 38.8344 -79.1947 266° West 365 420 25,800 960 Climbing Washington Center
08:48AM 38.8317 -79.3492 269° West 366 421 27,000 1,020 Climbing Washington Center
08:49AM 38.8275 -79.4875 268° West 366 421 27,900 780 Climbing Washington Center
08:50AM 38.8272 -79.6156 270° West 383 441 28,600 960 Climbing Washington Center
08:51AM 38.8244 -79.7644 269° West 383 441 29,900 1,080 Climbing Washington Center
08:52AM 38.8239 -79.8950 270° West 383 441 30,800 960 Climbing Washington Center
08:53AM 38.8192 -80.0256 267° West 383 441 31,900 900 Climbing Washington Center
08:54AM 38.7933 -80.1569 256° West 378 435 32,600 840 Climbing Washington Center
08:54AM 38.7850 -80.1803 245° Southwest 373 429 33,000 300 Climbing Indianapolis Center
08:55AM 38.7544 -80.3094 253° West 377 434 33,000 360 Level Indianapolis Center
08:56AM 38.7181 -80.4414 251° West 389 448 33,800 480 Climbing Indianapolis Center
08:57AM 38.6839 -80.5717 251° West 386 444 34,000 60 Climbing Indianapolis Center
08:58AM 38.6467 -80.7064 251° West 397 457 34,000  Level Indianapolis Center
08:59AM 38.6089 -80.8431 251° West 405 466 34,000  Level Indianapolis Center
09:00AM 38.5650 -81.0033 251° West 397 457 34,000  Level Indianapolis Center
09:01AM 38.5286 -81.1367 251° West 395 455 34,000  Level Indianapolis Center
09:02AM 38.4911 -81.2686 250° West 392 451 34,000  Level Indianapolis Center
09:03AM 38.4533 -81.4019 250° West 394 453 34,000  Level Indianapolis Center
09:04AM 38.4156 -81.5378 250° West 401 461 34,000  Level Indianapolis Center
09:05AM 38.3778 -81.6719 250° West 399 459 34,000  Level Indianapolis Center
09:06AM 38.3392 -81.8056 250° West 399 459 34,000  Level Indianapolis Center
09:07AM 38.3022 -81.9372 250° West 395 455 34,000  Level Indianapolis Center
09:08AM 38.2661 -82.0706 251° West 396 456 34,000  Level Indianapolis Center
09:09AM 38.2275 -82.2011 249° West 394 453 34,000  Level Indianapolis Center
09:10AM 38.1831 -82.3603 250° West 397 457 34,000  Level Indianapolis Center
09:11AM 38.1458 -82.4928 250° West 397 457 34,000  Level Indianapolis Center
09:12AM 38.1086 -82.6203 250° West 397 457 34,000  Level Indianapolis Center
09:13AM 38.0706 -82.7528 250° West 398 458 34,000  Level Indianapolis Center
09:14AM 38.0322 -82.8850 250° West 400 460 34,000  Level Indianapolis Center
09:16AM 37.9875 -83.0400 250° West 399 459 34,000  Level Indianapolis Center
09:17AM 37.9489 -83.1736 250° West 403 464 34,000  Level Indianapolis Center
09:18AM 37.9092 -83.3064 249° West 403 464 34,000  Level Indianapolis Center
09:19AM 37.8700 -83.4400 250° West 405 466 34,000  Level Indianapolis Center
09:20AM 37.8303 -83.5722 249° West 403 464 34,000  Level Indianapolis Center
09:21AM 37.7858 -83.7242 250° West 396 456 34,000  Level Indianapolis Center
09:22AM 37.7469 -83.8517 249° West 390 449 34,000  Level Indianapolis Center
09:23AM 37.7081 -83.9797 249° West 389 448 34,000  Level Indianapolis Center
09:24AM 37.6681 -84.1103 249° West 397 457 34,000  Level Indianapolis Center
09:25AM 37.6275 -84.2397 248° West 397 457 34,000  Level Indianapolis Center
09:26AM 37.5819 -84.3911 249° West 395 455 34,000  Level Indianapolis Center
09:27AM 37.5439 -84.5172 249° West 387 445 34,000  Level Indianapolis Center
09:28AM 37.5047 -84.6414 248° West 383 441 34,000  Level Indianapolis Center
09:29AM 37.4644 -84.7678 248° West 388 447 34,000  Level Indianapolis Center
09:30AM 37.4250 -84.8956 249° West 391 450 34,000  Level Indianapolis Center
09:31AM 37.3864 -85.0211 249° West 386 444 34,000  Level Indianapolis Center
09:32AM 37.3403 -85.1628 248° West 375 432 34,000  Level Indianapolis Center
09:33AM 37.3031 -85.2839 249° West 372 428 34,000  Level Indianapolis Center
09:34AM 37.2642 -85.4047 248° West 374 430 34,000  Level Indianapolis Center
09:35AM 37.2231 -85.5347 248° West 378 435 34,000  Level Indianapolis Center
09:36AM 37.1853 -85.6550 249° West 371 427 34,000  Level Indianapolis Center
09:37AM 37.1661 -85.7183 249° West 367 422 34,000  Level Memphis Center
09:38AM 37.1286 -85.8325 248° West 357 411 34,000  Level Memphis Center
09:39AM 37.0911 -85.9489 248° West 366 421 34,000  Level Memphis Center
09:40AM 37.0517 -86.0708 248° West 371 427 34,000  Level Memphis Center
09:41AM 37.0139 -86.1872 248° West 371 427 34,000  Level Memphis Center
09:42AM 36.9758 -86.2981 247° West 360 414 34,000  Level Memphis Center
09:43AM 36.9381 -86.4194 249° West 360 414 34,000 180 Level Memphis Center
09:44AM 36.8958 -86.5358 246° West 365 420 34,400 720 Climbing Memphis Center
09:45AM 36.8556 -86.6492 246° West 365 420 35,500 780 Climbing Memphis Center
09:46AM 36.8189 -86.7494 245° Southwest 359 413 36,000 240 Climbing Memphis Center
09:47AM 36.7783 -86.8625 246° West 359 413 36,000  Level Memphis Center
09:48AM 36.7358 -86.9808 246° West 364 419 36,000  Level Memphis Center
09:49AM 36.6931 -87.0992 246° West 369 425 36,000  Level Memphis Center
09:50AM 36.6503 -87.2172 246° West 369 425 36,000  Level Memphis Center
09:51AM 36.6075 -87.3353 246° West 374 430 36,000  Level Memphis Center
09:52AM 36.5622 -87.4531 244° Southwest 374 430 36,000  Level Memphis Center
09:53AM 36.5211 -87.5683 246° West 374 430 36,000  Level Memphis Center
09:54AM 36.4758 -87.6886 245° Southwest 374 430 36,000  Level Memphis Center
09:55AM 36.4306 -87.8086 245° Southwest 380 437 36,000  Level Memphis Center
09:56AM 36.3869 -87.9261 245° Southwest 380 437 36,000  Level Memphis Center
09:57AM 36.3394 -88.0564 246° West 385 443 36,000  Level Memphis Center
09:58AM 36.2956 -88.1683 244° Southwest 380 437 36,000  Level Memphis Center
09:59AM 36.2475 -88.2878 244° Southwest 375 432 36,100  Climbing Memphis Center
10:00AM 36.2036 -88.4072 246° West 381 438 36,000 -60 Descending Memphis Center
10:01AM 36.1575 -88.5217 244° Southwest 386 444 36,000  Level Memphis Center
10:02AM 36.1114 -88.6433 245° Southwest 386 444 36,000  Level Memphis Center
10:03AM 36.0650 -88.7650 245° Southwest 386 444 36,000  Level Memphis Center
10:04AM 36.0164 -88.8867 244° Southwest 391 450 36,000  Level Memphis Center
10:05AM 35.9656 -89.0081 243° Southwest 391 450 36,000  Level Memphis Center
10:06AM 35.9189 -89.1344 246° West 391 450 36,000  Level Memphis Center
10:07AM 35.8700 -89.2606 244° Southwest 403 464 36,000  Level Memphis Center
10:08AM 35.8192 -89.3867 244° Southwest 403 464 36,000  Level Memphis Center
10:09AM 35.7700 -89.5128 244° Southwest 403 464 36,000  Level Memphis Center
10:10AM 35.7206 -89.6358 244° Southwest 403 464 36,100  Climbing Memphis Center
10:11AM 35.6858 -89.7461 249° West 403 464 36,000 -60 Descending Memphis Center
10:12AM 35.6364 -89.8667 243° Southwest 398 458 36,000  Level Memphis Center
10:13AM 35.5889 -89.9894 245° Southwest 404 465 36,000  Level Memphis Center
10:14AM 35.5347 -90.1222 243° Southwest 404 465 36,000  Level Memphis Center
10:15AM 35.4869 -90.2447 244° Southwest 403 464 36,000  Level Memphis Center
10:16AM 35.4350 -90.3647 242° Southwest 402 463 36,000  Level Memphis Center
10:17AM 35.3869 -90.4894 245° Southwest 402 463 36,000  Level Memphis Center
10:18AM 35.3450 -90.5886 243° Southwest 402 463 36,000  Level Memphis Center
10:19AM 35.2842 -90.7336 243° Southwest 402 463 36,000  Level Memphis Center
10:20AM 35.2400 -90.8553 246° West 410 472 36,000  Level Memphis Center
10:21AM 35.1831 -90.9819 241° Southwest 405 466 36,000  Level Memphis Center
10:22AM 35.1344 -91.1036 244° Southwest 410 472 36,000  Level Memphis Center
10:23AM 35.0817 -91.2275 243° Southwest 405 466 36,000  Level Memphis Center
10:24AM 35.0306 -91.3536 244° Southwest 411 473 36,000  Level Memphis Center
10:25AM 34.9775 -91.4672 240° Southwest 405 466 36,000  Level Memphis Center
10:26AM 34.9242 -91.5931 243° Southwest 405 466 36,000  Level Memphis Center
10:27AM 34.8792 -91.7089 245° Southwest 416 479 36,000  Level Memphis Center
10:28AM 34.8233 -91.8369 242° Southwest 410 472 36,000  Level Memphis Center
10:29AM 34.7697 -91.9625 243° Southwest 410 472 36,000  Level Memphis Center
10:31AM 34.6703 -92.2131 244° Southwest 405 466 36,000  Level Memphis Center
10:32AM 34.6347 -92.3436 252° West 406 467 36,000  Level Memphis Center
10:33AM 34.5994 -92.4714 251° West 406 467 36,000  Level Memphis Center
10:34AM 34.5658 -92.6017 253° West 406 467 36,000  Level Memphis Center
10:35AM 34.5300 -92.7344 252° West 406 467 36,000  Level Memphis Center
10:36AM 34.4961 -92.8619 252° West 406 467 36,000  Level Memphis Center
10:37AM 34.4600 -92.9944 252° West 411 473 36,000  Level Memphis Center
10:38AM 34.4258 -93.1269 253° West 411 473 36,000  Level Memphis Center
10:39AM 34.3894 -93.2567 251° West 417 480 36,000  Level Memphis Center
10:40AM 34.3283 -93.3703 237° Southwest 417 480 36,000  Level Memphis Center
10:41AM 34.2561 -93.4964 235° Southwest 416 479 36,000  Level Fort Worth Center
10:42AM 34.1864 -93.6025 232° Southwest 411 473 36,000  Level Fort Worth Center
10:43AM 34.1208 -93.7106 234° Southwest 406 467 36,000 -240 Level Fort Worth Center
10:44AM 34.0511 -93.8189 232° Southwest 406 467 35,600 -960 Descending Fort Worth Center
10:45AM 33.9769 -93.9322 232° Southwest 413 475 34,100 -1,560 Descending Fort Worth Center
10:46AM 33.9047 -94.0425 232° Southwest 426 490 32,500 -1,500 Descending Fort Worth Center
10:47AM 33.8369 -94.1578 235° Southwest 426 490 31,100 -1,500 Descending Fort Worth Center
10:48AM 33.7628 -94.2753 233° Southwest 436 502 29,500 -1,500 Descending Fort Worth Center
10:49AM 33.7303 -94.4014 253° West 406 467 28,100 -1,500 Descending Fort Worth Center
10:50AM 33.7083 -94.5344 259° West 406 467 26,500 -1,500 Descending Fort Worth Center
10:51AM 33.6864 -94.6650 259° West 406 467 25,100 -1,260 Descending Fort Worth Center
10:52AM 33.6639 -94.7956 258° West 406 467 24,000 -540 Descending Fort Worth Center
10:53AM 33.6436 -94.9258 259° West 406 467 24,100  Climbing Fort Worth Center
10:54AM 33.6233 -95.0561 259° West 401 461 24,000 -60 Descending Fort Worth Center
10:55AM 33.6028 -95.1889 260° West 401 461 24,000  Level Fort Worth Center
10:56AM 33.5797 -95.3142 258° West 401 461 24,000  Level Fort Worth Center
10:57AM 33.5608 -95.4317 259° West 382 440 24,000 -540 Level Fort Worth Center
10:58AM 33.5378 -95.5594 258° West 382 440 23,000 -1,440 Descending Fort Worth Center
10:59AM 33.5247 -95.6642 262° West 370 426 21,200 -2,040 Descending Fort Worth Center
11:00AM 33.5033 -95.7892 258° West 359 413 19,000 -1,920 Descending Fort Worth Center
11:01AM 33.4858 -95.8917 258° West 353 406 17,400 -1,740 Descending Fort Worth Center
11:02AM 33.4664 -96.0017 258° West 325 374 15,600 -1,680 Descending Fort Worth Center
11:03AM 33.4506 -96.0939 258° West 313 360 14,100 -1,620 Descending Fort Worth Center
11:04AM 33.4331 -96.2061 259° West 313 360 12,400 -1,560 Descending Fort Worth Center
11:05AM 33.4169 -96.2961 258° West 313 360 11,000 -720 Descending Fort Worth Center
11:06AM 33.3950 -96.3983 256° West 307 353 11,000 -240 Level Fort Worth Center
11:07AM 33.3494 -96.4586 228° Southwest 278 320 10,600 -1,080 Descending Fort Worth Center
11:08AM 33.3019 -96.5311 232° Southwest 261 300 8,900 -1,620 Descending Fort Worth Center
11:09AM 33.2900 -96.6158 260° West 256 295 7,400 -1,440 Descending Fort Worth Center
11:10AM 33.2758 -96.6928 258° West 263 303 6,100 -720 Descending Fort Worth Center
11:11AM 33.2639 -96.7800 261° West 256 295 6,000 -60 Descending Fort Worth Center
11:12AM 33.2456 -96.8522 253° West 256 295 6,000  Level Fort Worth Center
11:13AM 33.2208 -96.9367 251° West 256 295 6,000 -480 Level Fort Worth Center
11:14AM 33.2042 -96.9914 250° West 220 253 5,100 -540 Descending Fort Worth Center
11:15AM 33.1583 -97.0264 213° Southwest 184 212 5,000 -240 Descending Fort Worth Center
11:16AM 33.1167 -97.0289 183° South 164 189 4,700 -720 Descending Fort Worth Center
11:17AM 33.0686 -97.0267 178° South 164 189 3,600 -960 Descending Fort Worth Center
11:18AM 33.0333 -97.0333 189° South 154 177 2,900 -900 Descending Dallas / Fort Worth TRACON
11:19AM 32.9833 -97.0333 180° South 155 178 2,000 -840 Descending Dallas / Fort Worth TRACON
11:20AM 32.9500 -97.0333 180° South 129 148 1,300 -720 Descending Dallas / Fort Worth TRACON
11:22AM 32.8968 -97.0380 232° Southwest  Level Estimated
11:29AM 32.8968 -97.0380 232° Southwest  Level Estimated